sensor_id;sensor_type;location;lat;lon;timestamp;pressure;altitude;pressure_sealevel;temperature;humidity
14269;BME280;7218;51.480;7.006;2023-04-25T00:02:21;99917.50;;;6.46;100.00
14269;BME280;7218;51.480;7.006;2023-04-25T00:04:48;99917.59;;;6.34;100.00
14269;BME280;7218;51.480;7.006;2023-04-25T00:07:15;99920.13;;;6.40;100.00
14269;BME280;7218;51.480;7.006;2023-04-25T00:09:42;99916.09;;;6.05;100.00
14269;BME280;7218;51.480;7.006;2023-04-25T00:12:09;99909.00;;;6.32;100.00
14269;BME280;7218;51.480;7.006;2023-04-25T00:14:36;99908.91;;;6.38;100.00
14269;BME280;7218;51.480;7.006;2023-04-25T00:17:03;99905.41;;;6.45;100.00
14269;BME280;7218;51.480;7.006;2023-04-25T00:19:29;99906.41;;;6.32;100.00
14269;BME280;7218;51.480;7.006;2023-04-25T00:21:56;99908.91;;;6.39;100.00
14269;BME280;7218;51.480;7.006;2023-04-25T00:24:22;99914.97;;;6.38;100.00
14269;BME280;7218;51.480;7.006;2023-04-25T00:26:49;99907.97;;;6.48;100.00
14269;BME280;7218;51.480;7.006;2023-04-25T00:29:16;99915.78;;;6.45;100.00
14269;BME280;7218;51.480;7.006;2023-04-25T00:31:43;99917.50;;;6.43;100.00
14269;BME280;7218;51.480;7.006;2023-04-25T00:34:09;99920.00;;;6.57;100.00
14269;BME280;7218;51.480;7.006;2023-04-25T00:36:36;99920.78;;;6.63;100.00
14269;BME280;7218;51.480;7.006;2023-04-25T00:39:03;99919.16;;;6.53;100.00
14269;BME280;7218;51.480;7.006;2023-04-25T00:41:30;99915.72;;;6.51;100.00
14269;BME280;7218;51.480;7.006;2023-04-25T00:43:56;99919.97;;;6.58;100.00
14269;BME280;7218;51.480;7.006;2023-04-25T00:46:25;99905.09;;;6.78;100.00
14269;BME280;7218;51.480;7.006;2023-04-25T00:48:51;99912.00;;;6.78;100.00
14269;BME280;7218;51.480;7.006;2023-04-25T00:51:20;99914.47;;;6.91;100.00
14269;BME280;7218;51.480;7.006;2023-04-25T00:53:48;99910.38;;;6.69;100.00
14269;BME280;7218;51.480;7.006;2023-04-25T00:56:16;99917.28;;;6.69;100.00
14269;BME280;7218;51.480;7.006;2023-04-25T00:58:42;99931.09;;;6.69;100.00
14269;BME280;7218;51.480;7.006;2023-04-25T01:01:10;99923.38;;;6.65;100.00
14269;BME280;7218;51.480;7.006;2023-04-25T01:03:39;99916.25;;;6.86;100.00
14269;BME280;7218;51.480;7.006;2023-04-25T01:06:07;99916.31;;;6.79;100.00
14269;BME280;7218;51.480;7.006;2023-04-25T01:08:34;99925.97;;;6.63;100.00
14269;BME280;7218;51.480;7.006;2023-04-25T01:11:01;99927.72;;;6.61;100.00
14269;BME280;7218;51.480;7.006;2023-04-25T01:13:28;99925.06;;;6.70;100.00
14269;BME280;7218;51.480;7.006;2023-04-25T01:15:54;99922.50;;;6.67;100.00
14269;BME280;7218;51.480;7.006;2023-04-25T01:18:21;99910.28;;;6.78;100.00
14269;BME280;7218;51.480;7.006;2023-04-25T01:20:50;99922.31;;;6.85;100.00
14269;BME280;7218;51.480;7.006;2023-04-25T01:23:18;99918.97;;;6.74;100.00
14269;BME280;7218;51.480;7.006;2023-04-25T01:25:45;99921.59;;;6.70;100.00
14269;BME280;7218;51.480;7.006;2023-04-25T01:28:12;99915.44;;;6.81;100.00
14269;BME280;7218;51.480;7.006;2023-04-25T01:30:38;99930.25;;;6.69;100.00
14269;BME280;7218;51.480;7.006;2023-04-25T01:33:05;99921.56;;;6.74;100.00
14269;BME280;7218;51.480;7.006;2023-04-25T01:35:34;99933.69;;;6.69;100.00
14269;BME280;7218;51.480;7.006;2023-04-25T01:38:00;99933.69;;;6.68;100.00
14269;BME280;7218;51.480;7.006;2023-04-25T01:40:28;99931.78;;;6.89;100.00
14269;BME280;7218;51.480;7.006;2023-04-25T01:42:55;99941.50;;;6.66;100.00
14269;BME280;7218;51.480;7.006;2023-04-25T01:45:22;99940.81;;;6.44;100.00
14269;BME280;7218;51.480;7.006;2023-04-25T01:47:48;99939.94;;;6.45;100.00
14269;BME280;7218;51.480;7.006;2023-04-25T01:50:16;99942.47;;;6.55;100.00
14269;BME280;7218;51.480;7.006;2023-04-25T01:52:44;99938.06;;;6.67;100.00
14269;BME280;7218;51.480;7.006;2023-04-25T01:55:11;99941.50;;;6.66;100.00
14269;BME280;7218;51.480;7.006;2023-04-25T01:57:38;99949.25;;;6.69;100.00
14269;BME280;7218;51.480;7.006;2023-04-25T02:00:06;99948.47;;;6.61;100.00
14269;BME280;7218;51.480;7.006;2023-04-25T02:02:33;99946.03;;;6.38;100.00
14269;BME280;7218;51.480;7.006;2023-04-25T02:05:00;99953.75;;;6.46;100.00
14269;BME280;7218;51.480;7.006;2023-04-25T02:07:26;99951.34;;;6.26;100.00
14269;BME280;7218;51.480;7.006;2023-04-25T02:09:53;99950.41;;;6.35;100.00
14269;BME280;7218;51.480;7.006;2023-04-25T02:12:19;99960.63;;;6.50;100.00
14269;BME280;7218;51.480;7.006;2023-04-25T02:14:47;99962.19;;;6.69;100.00
14269;BME280;7218;51.480;7.006;2023-04-25T02:17:14;99957.34;;;6.28;100.00
14269;BME280;7218;51.480;7.006;2023-04-25T02:19:41;99961.53;;;6.46;100.00
14269;BME280;7218;51.480;7.006;2023-04-25T02:22:07;99969.38;;;6.37;100.00
14269;BME280;7218;51.480;7.006;2023-04-25T02:24:34;99965.00;;;6.46;100.00
14269;BME280;7218;51.480;7.006;2023-04-25T02:27:00;99963.13;;;6.61;100.00
14269;BME280;7218;51.480;7.006;2023-04-25T02:29:27;99969.50;;;6.22;100.00
14269;BME280;7218;51.480;7.006;2023-04-25T02:31:55;99972.72;;;6.51;100.00
14269;BME280;7218;51.480;7.006;2023-04-25T02:34:21;99969.31;;;6.46;100.00
14269;BME280;7218;51.480;7.006;2023-04-25T02:36:48;99969.38;;;6.34;100.00
14269;BME280;7218;51.480;7.006;2023-04-25T02:39:14;99979.75;;;6.37;100.00
14269;BME280;7218;51.480;7.006;2023-04-25T02:41:41;99980.53;;;6.46;100.00
14269;BME280;7218;51.480;7.006;2023-04-25T02:44:07;99983.91;;;6.55;100.00
14269;BME280;7218;51.480;7.006;2023-04-25T02:46:34;99971.78;;;6.58;100.00
14269;BME280;7218;51.480;7.006;2023-04-25T02:49:01;99977.75;;;6.69;100.00
14269;BME280;7218;51.480;7.006;2023-04-25T02:51:28;99980.50;;;6.48;100.00
14269;BME280;7218;51.480;7.006;2023-04-25T02:53:55;99979.66;;;6.43;100.00
14269;BME280;7218;51.480;7.006;2023-04-25T02:56:21;99979.69;;;6.41;100.00
14269;BME280;7218;51.480;7.006;2023-04-25T02:58:48;99978.00;;;6.36;100.00
14269;BME280;7218;51.480;7.006;2023-04-25T03:01:14;99982.38;;;6.32;100.00
14269;BME280;7218;51.480;7.006;2023-04-25T03:03:41;99977.16;;;6.37;100.00
14269;BME280;7218;51.480;7.006;2023-04-25T03:06:09;99982.28;;;6.41;100.00
14269;BME280;7218;51.480;7.006;2023-04-25T03:08:35;99978.97;;;6.20;100.00
14269;BME280;7218;51.480;7.006;2023-04-25T03:11:02;99985.81;;;6.31;100.00
14269;BME280;7218;51.480;7.006;2023-04-25T03:13:28;99983.22;;;6.28;100.00
14269;BME280;7218;51.480;7.006;2023-04-25T03:15:55;99981.66;;;6.04;100.00
14269;BME280;7218;51.480;7.006;2023-04-25T03:18:21;99989.44;;;6.08;100.00
14269;BME280;7218;51.480;7.006;2023-04-25T03:20:47;99985.19;;;5.85;100.00
14269;BME280;7218;51.480;7.006;2023-04-25T03:23:16;99986.81;;;6.11;100.00
14269;BME280;7218;51.480;7.006;2023-04-25T03:25:42;99981.72;;;5.95;100.00
14269;BME280;7218;51.480;7.006;2023-04-25T03:28:08;99981.59;;;6.17;100.00
14269;BME280;7218;51.480;7.006;2023-04-25T03:30:35;99989.38;;;6.15;100.00
14269;BME280;7218;51.480;7.006;2023-04-25T03:33:01;99990.19;;;6.19;100.00
14269;BME280;7218;51.480;7.006;2023-04-25T03:35:28;99990.19;;;6.22;100.00
14269;BME280;7218;51.480;7.006;2023-04-25T03:37:54;99990.25;;;6.10;100.00
14269;BME280;7218;51.480;7.006;2023-04-25T03:40:22;99990.16;;;6.25;100.00
14269;BME280;7218;51.480;7.006;2023-04-25T03:42:49;99991.06;;;6.19;100.00
14269;BME280;7218;51.480;7.006;2023-04-25T03:45:15;99990.19;;;6.20;100.00
14269;BME280;7218;51.480;7.006;2023-04-25T03:47:41;99993.59;;;6.30;100.00
14269;BME280;7218;51.480;7.006;2023-04-25T03:50:09;99997.09;;;6.20;100.00
14269;BME280;7218;51.480;7.006;2023-04-25T03:52:35;99992.84;;;6.10;100.00
14269;BME280;7218;51.480;7.006;2023-04-25T03:55:02;100002.19;;;6.33;100.00
14269;BME280;7218;51.480;7.006;2023-04-25T03:57:31;99995.22;;;6.44;100.00
14269;BME280;7218;51.480;7.006;2023-04-25T03:59:57;100005.69;;;6.23;100.00
14269;BME280;7218;51.480;7.006;2023-04-25T04:02:24;100009.16;;;6.27;100.00
14269;BME280;7218;51.480;7.006;2023-04-25T04:04:50;100003.22;;;6.13;100.00
14269;BME280;7218;51.480;7.006;2023-04-25T04:07:16;100009.19;;;6.21;100.00
14269;BME280;7218;51.480;7.006;2023-04-25T04:09:43;100006.63;;;6.16;100.00
14269;BME280;7218;51.480;7.006;2023-04-25T04:12:09;100013.56;;;6.13;100.00
14269;BME280;7218;51.480;7.006;2023-04-25T04:14:37;100006.53;;;6.28;100.00
14269;BME280;7218;51.480;7.006;2023-04-25T04:17:04;100009.16;;;6.27;100.00
14269;BME280;7218;51.480;7.006;2023-04-25T04:19:31;100010.88;;;6.23;100.00
14269;BME280;7218;51.480;7.006;2023-04-25T04:21:57;100013.56;;;6.11;100.00
14269;BME280;7218;51.480;7.006;2023-04-25T04:24:24;100022.13;;;6.21;100.00
14269;BME280;7218;51.480;7.006;2023-04-25T04:26:50;100017.78;;;6.27;100.00
14269;BME280;7218;51.480;7.006;2023-04-25T04:29:17;100025.72;;;5.88;100.00
14269;BME280;7218;51.480;7.006;2023-04-25T04:31:48;100025.63;;;6.11;100.00
14269;BME280;7218;51.480;7.006;2023-04-25T04:34:15;100029.94;;;6.10;100.00
14269;BME280;7218;51.480;7.006;2023-04-25T04:36:43;100043.84;;;5.95;100.00
14269;BME280;7218;51.480;7.006;2023-04-25T04:39:10;100036.00;;;6.03;100.00
14269;BME280;7218;51.480;7.006;2023-04-25T04:41:36;100025.66;;;6.06;100.00
14269;BME280;7218;51.480;7.006;2023-04-25T04:44:03;100029.13;;;6.07;100.00
14269;BME280;7218;51.480;7.006;2023-04-25T04:46:31;100046.44;;;5.89;100.00
14269;BME280;7218;51.480;7.006;2023-04-25T04:49:04;100045.44;;;6.21;100.00
14269;BME280;7218;51.480;7.006;2023-04-25T04:51:30;100039.47;;;6.07;100.00
14269;BME280;7218;51.480;7.006;2023-04-25T04:53:58;100051.63;;;5.89;100.00
14269;BME280;7218;51.480;7.006;2023-04-25T04:56:27;100052.44;;;5.99;100.00
14269;BME280;7218;51.480;7.006;2023-04-25T04:58:54;100048.94;;;6.11;100.00
14269;BME280;7218;51.480;7.006;2023-04-25T05:01:21;100056.66;;;6.21;100.00
14269;BME280;7218;51.480;7.006;2023-04-25T05:03:48;100055.69;;;6.36;100.00
14269;BME280;7218;51.480;7.006;2023-04-25T05:06:16;100057.41;;;6.40;100.00
14269;BME280;7218;51.480;7.006;2023-04-25T05:08:43;100055.75;;;6.27;100.00
14269;BME280;7218;51.480;7.006;2023-04-25T05:11:09;100059.19;;;6.32;100.00
14269;BME280;7218;51.480;7.006;2023-04-25T05:13:36;100057.41;;;6.40;100.00
14269;BME280;7218;51.480;7.006;2023-04-25T05:16:03;100067.81;;;6.28;100.00
14269;BME280;7218;51.480;7.006;2023-04-25T05:18:30;100068.69;;;6.28;100.00
14269;BME280;7218;51.480;7.006;2023-04-25T05:20:56;100077.34;;;6.27;100.00
14269;BME280;7218;51.480;7.006;2023-04-25T05:23:24;100081.53;;;6.45;100.00
14269;BME280;7218;51.480;7.006;2023-04-25T05:25:50;100077.28;;;6.36;100.00
14269;BME280;7218;51.480;7.006;2023-04-25T05:28:17;100081.56;;;6.42;100.00
14269;BME280;7218;51.480;7.006;2023-04-25T05:30:43;100091.94;;;6.39;100.00
14269;BME280;7218;51.480;7.006;2023-04-25T05:33:09;100092.72;;;6.48;100.00
14269;BME280;7218;51.480;7.006;2023-04-25T05:35:36;100096.16;;;6.57;100.00
14269;BME280;7218;51.480;7.006;2023-04-25T05:38:02;100099.66;;;6.45;100.00
14269;BME280;7218;51.480;7.006;2023-04-25T05:40:30;100097.03;;;6.54;100.00
14269;BME280;7218;51.480;7.006;2023-04-25T05:42:56;100097.06;;;6.51;100.00
14269;BME280;7218;51.480;7.006;2023-04-25T05:45:23;100102.19;;;6.57;100.00
14269;BME280;7218;51.480;7.006;2023-04-25T05:47:49;100102.25;;;6.45;100.00
14269;BME280;7218;51.480;7.006;2023-04-25T05:50:16;100109.94;;;6.59;100.00
14269;BME280;7218;51.480;7.006;2023-04-25T05:52:42;100115.25;;;6.33;100.00
14269;BME280;7218;51.480;7.006;2023-04-25T05:55:09;100115.28;;;6.30;100.00
14269;BME280;7218;51.480;7.006;2023-04-25T05:57:37;100119.50;;;6.52;100.00
14269;BME280;7218;51.480;7.006;2023-04-25T06:00:07;100129.91;;;6.38;100.00
14269;BME280;7218;51.480;7.006;2023-04-25T06:02:34;100124.63;;;6.61;100.00
14269;BME280;7218;51.480;7.006;2023-04-25T06:05:00;100120.25;;;6.68;100.00
14269;BME280;7218;51.480;7.006;2023-04-25T06:07:28;100118.56;;;6.62;100.00
14269;BME280;7218;51.480;7.006;2023-04-25T06:09:55;100123.66;;;6.74;100.00
14269;BME280;7218;51.480;7.006;2023-04-25T06:12:21;100140.03;;;6.79;100.00
14269;BME280;7218;51.480;7.006;2023-04-25T06:14:49;100142.56;;;6.90;100.00
14269;BME280;7218;51.480;7.006;2023-04-25T06:17:15;100147.66;;;7.05;100.00
14269;BME280;7218;51.480;7.006;2023-04-25T06:19:42;100137.38;;;6.90;100.00
14269;BME280;7218;51.480;7.006;2023-04-25T06:22:08;100136.56;;;6.86;100.00
14269;BME280;7218;51.480;7.006;2023-04-25T06:24:35;100141.84;;;6.71;100.00
14269;BME280;7218;51.480;7.006;2023-04-25T06:27:01;100138.34;;;6.75;100.00
14269;BME280;7218;51.480;7.006;2023-04-25T06:29:28;100144.47;;;6.62;100.00
14269;BME280;7218;51.480;7.006;2023-04-25T06:31:55;100143.44;;;6.90;100.00
14269;BME280;7218;51.480;7.006;2023-04-25T06:34:22;100140.00;;;6.82;100.00
14269;BME280;7218;51.480;7.006;2023-04-25T06:36:49;100139.09;;;6.96;99.28
14269;BME280;7218;51.480;7.006;2023-04-25T06:39:15;100142.53;;;6.95;98.88
14269;BME280;7218;51.480;7.006;2023-04-25T06:41:42;100149.69;;;6.55;99.61
14269;BME280;7218;51.480;7.006;2023-04-25T06:44:08;100152.94;;;6.88;99.40
14269;BME280;7218;51.480;7.006;2023-04-25T06:46:35;100159.72;;;7.08;98.58
14269;BME280;7218;51.480;7.006;2023-04-25T06:49:04;100158.91;;;6.98;99.52
14269;BME280;7218;51.480;7.006;2023-04-25T06:51:30;100170.31;;;6.76;99.13
14269;BME280;7218;51.480;7.006;2023-04-25T06:53:57;100175.56;;;6.67;99.56
14269;BME280;7218;51.480;7.006;2023-04-25T06:56:23;100174.56;;;6.84;99.34
14269;BME280;7218;51.480;7.006;2023-04-25T06:58:50;100159.00;;;6.92;96.76
14269;BME280;7218;51.480;7.006;2023-04-25T07:01:16;100167.53;;;7.03;97.61
14269;BME280;7218;51.480;7.006;2023-04-25T07:03:43;100164.06;;;7.03;96.74
14269;BME280;7218;51.480;7.006;2023-04-25T07:06:10;100176.09;;;7.14;94.14
14269;BME280;7218;51.480;7.006;2023-04-25T07:08:37;100177.06;;;7.01;93.42
14269;BME280;7218;51.480;7.006;2023-04-25T07:11:03;100176.16;;;7.07;93.97
14269;BME280;7218;51.480;7.006;2023-04-25T07:13:30;100178.66;;;7.17;93.11
14269;BME280;7218;51.480;7.006;2023-04-25T07:15:56;100182.06;;;7.27;92.59
14269;BME280;7218;51.480;7.006;2023-04-25T07:18:23;100174.22;;;7.34;91.81
14269;BME280;7218;51.480;7.006;2023-04-25T07:20:49;100173.28;;;7.45;91.34
14269;BME280;7218;51.480;7.006;2023-04-25T07:23:17;100191.06;;;7.86;90.01
14269;BME280;7218;51.480;7.006;2023-04-25T07:25:43;100185.91;;;7.81;87.21
14269;BME280;7218;51.480;7.006;2023-04-25T07:28:10;100186.78;;;7.78;85.30
14269;BME280;7218;51.480;7.006;2023-04-25T07:30:40;100189.28;;;7.88;84.35
14269;BME280;7218;51.480;7.006;2023-04-25T07:33:06;100188.38;;;7.95;86.20
14269;BME280;7218;51.480;7.006;2023-04-25T07:35:33;100202.41;;;7.75;83.34
14269;BME280;7218;51.480;7.006;2023-04-25T07:37:59;100196.03;;;7.06;85.13
14269;BME280;7218;51.480;7.006;2023-04-25T07:40:27;100195.66;;;7.55;85.35
14269;BME280;7218;51.480;7.006;2023-04-25T07:42:53;100200.69;;;7.73;82.39
14269;BME280;7218;51.480;7.006;2023-04-25T07:45:20;100196.13;;;7.99;81.65
14269;BME280;7218;51.480;7.006;2023-04-25T07:47:46;100202.22;;;7.95;80.50
14269;BME280;7218;51.480;7.006;2023-04-25T07:50:13;100209.63;;;8.29;79.77
14269;BME280;7218;51.480;7.006;2023-04-25T07:52:39;100212.69;;;7.85;81.44
14269;BME280;7218;51.480;7.006;2023-04-25T07:55:06;100215.56;;;8.44;79.70
14269;BME280;7218;51.480;7.006;2023-04-25T07:57:34;100219.94;;;8.39;81.55
14269;BME280;7218;51.480;7.006;2023-04-25T08:00:01;100213.53;;;8.68;80.92
14269;BME280;7218;51.480;7.006;2023-04-25T08:02:27;100225.53;;;8.79;78.31
14269;BME280;7218;51.480;7.006;2023-04-25T08:04:54;100223.66;;;8.87;76.97
14269;BME280;7218;51.480;7.006;2023-04-25T08:07:20;100225.56;;;8.76;75.70
14269;BME280;7218;51.480;7.006;2023-04-25T08:09:46;100225.41;;;8.87;75.77
14269;BME280;7218;51.480;7.006;2023-04-25T08:12:13;100231.91;;;9.18;75.78
14269;BME280;7218;51.480;7.006;2023-04-25T08:14:41;100235.94;;;9.37;75.01
14269;BME280;7218;51.480;7.006;2023-04-25T08:17:07;100239.66;;;9.76;72.24
14269;BME280;7218;51.480;7.006;2023-04-25T08:19:33;100241.88;;;9.99;68.88
14269;BME280;7218;51.480;7.006;2023-04-25T08:22:00;100238.94;;;9.70;71.30
14269;BME280;7218;51.480;7.006;2023-04-25T08:24:27;100245.25;;;9.55;68.66
14269;BME280;7218;51.480;7.006;2023-04-25T08:26:53;100241.88;;;9.48;71.91
14269;BME280;7218;51.480;7.006;2023-04-25T08:29:20;100247.84;;;9.54;69.14
14269;BME280;7218;51.480;7.006;2023-04-25T08:31:49;100254.56;;;9.68;71.71
14269;BME280;7218;51.480;7.006;2023-04-25T08:34:17;100257.72;;;9.33;72.28
14269;BME280;7218;51.480;7.006;2023-04-25T08:36:44;100263.50;;;9.52;71.89
14269;BME280;7218;51.480;7.006;2023-04-25T08:39:10;100265.38;;;9.42;72.08
14269;BME280;7218;51.480;7.006;2023-04-25T08:41:38;100261.59;;;9.62;70.38
14269;BME280;7218;51.480;7.006;2023-04-25T08:44:06;100270.53;;;9.99;70.69
14269;BME280;7218;51.480;7.006;2023-04-25T08:46:34;100265.66;;;9.79;71.63
14269;BME280;7218;51.480;7.006;2023-04-25T08:49:04;100270.28;;;10.14;67.90
14269;BME280;7218;51.480;7.006;2023-04-25T08:51:32;100277.41;;;10.52;64.63
14269;BME280;7218;51.480;7.006;2023-04-25T08:54:08;100276.34;;;10.62;65.86
14269;BME280;7218;51.480;7.006;2023-04-25T08:56:35;100277.38;;;10.55;61.15
14269;BME280;7218;51.480;7.006;2023-04-25T08:59:02;100286.56;;;10.74;59.25
14269;BME280;7218;51.480;7.006;2023-04-25T09:01:29;100288.38;;;11.11;58.66
14269;BME280;7218;51.480;7.006;2023-04-25T09:03:57;100274.84;;;11.34;57.96
14269;BME280;7218;51.480;7.006;2023-04-25T09:06:25;100296.81;;;10.82;58.31
14269;BME280;7218;51.480;7.006;2023-04-25T09:08:52;100293.81;;;10.59;61.55
14269;BME280;7218;51.480;7.006;2023-04-25T09:11:19;100299.66;;;10.24;60.71
14269;BME280;7218;51.480;7.006;2023-04-25T09:13:45;100306.75;;;10.14;61.33
14269;BME280;7218;51.480;7.006;2023-04-25T09:16:12;100310.72;;;9.84;63.13
14269;BME280;7218;51.480;7.006;2023-04-25T09:18:42;100301.19;;;9.85;61.86
14269;BME280;7218;51.480;7.006;2023-04-25T09:21:10;100305.78;;;10.21;62.41
14269;BME280;7218;51.480;7.006;2023-04-25T09:23:43;100310.69;;;10.40;63.20
14269;BME280;7218;51.480;7.006;2023-04-25T09:26:10;100318.63;;;10.78;60.91
14269;BME280;7218;51.480;7.006;2023-04-25T09:28:39;100320.97;;;10.92;55.78
14269;BME280;7218;51.480;7.006;2023-04-25T09:31:09;100320.75;;;11.44;53.87
14269;BME280;7218;51.480;7.006;2023-04-25T09:33:36;100320.47;;;11.16;54.32
14269;BME280;7218;51.480;7.006;2023-04-25T09:36:04;100315.16;;;11.20;55.03
14269;BME280;7218;51.480;7.006;2023-04-25T09:38:31;100318.56;;;11.62;53.31
14269;BME280;7218;51.480;7.006;2023-04-25T09:40:59;100319.88;;;11.43;54.34
14269;BME280;7218;51.480;7.006;2023-04-25T09:43:26;100332.38;;;11.29;49.27
14269;BME280;7218;51.480;7.006;2023-04-25T09:45:54;100330.06;;;11.15;50.89
14269;BME280;7218;51.480;7.006;2023-04-25T09:48:25;100331.31;;;11.38;53.39
14269;BME280;7218;51.480;7.006;2023-04-25T09:51:04;100332.16;;;11.40;53.77
14269;BME280;7218;51.480;7.006;2023-04-25T09:53:31;100342.38;;;10.64;52.25
14269;BME280;7218;51.480;7.006;2023-04-25T09:56:00;100342.69;;;10.92;56.32
14269;BME280;7218;51.480;7.006;2023-04-25T09:58:29;100342.22;;;10.72;53.64
14269;BME280;7218;51.480;7.006;2023-04-25T10:00:59;100342.41;;;11.07;54.65
14269;BME280;7218;51.480;7.006;2023-04-25T10:03:26;100337.91;;;11.54;52.63
14269;BME280;7218;51.480;7.006;2023-04-25T10:05:53;100339.69;;;11.52;50.14
14269;BME280;7218;51.480;7.006;2023-04-25T10:08:21;100345.63;;;11.60;50.41
14269;BME280;7218;51.480;7.006;2023-04-25T10:10:48;100341.41;;;11.53;48.03
14269;BME280;7218;51.480;7.006;2023-04-25T10:13:17;100342.94;;;11.63;48.02
14269;BME280;7218;51.480;7.006;2023-04-25T10:15:45;100349.88;;;11.26;47.07
14269;BME280;7218;51.480;7.006;2023-04-25T10:18:13;100350.66;;;10.39;46.46
14269;BME280;7218;51.480;7.006;2023-04-25T10:20:40;100359.34;;;10.41;50.98
14269;BME280;7218;51.480;7.006;2023-04-25T10:23:10;100360.66;;;10.63;47.74
14269;BME280;7218;51.480;7.006;2023-04-25T10:25:38;100348.75;;;10.50;48.98
14269;BME280;7218;51.480;7.006;2023-04-25T10:28:05;100357.88;;;10.72;50.00
14269;BME280;7218;51.480;7.006;2023-04-25T10:30:33;100363.06;;;11.16;49.41
14269;BME280;7218;51.480;7.006;2023-04-25T10:33:00;100361.19;;;11.25;48.91
14269;BME280;7218;51.480;7.006;2023-04-25T10:35:29;100362.59;;;10.98;49.24
14269;BME280;7218;51.480;7.006;2023-04-25T10:37:58;100372.56;;;10.76;50.57
14269;BME280;7218;51.480;7.006;2023-04-25T10:40:26;100375.69;;;10.49;52.32
14269;BME280;7218;51.480;7.006;2023-04-25T10:42:52;100372.66;;;10.22;53.87
14269;BME280;7218;51.480;7.006;2023-04-25T10:45:19;100381.88;;;9.86;55.78
14269;BME280;7218;51.480;7.006;2023-04-25T10:47:48;100384.94;;;9.56;55.08
14269;BME280;7218;51.480;7.006;2023-04-25T10:50:15;100388.47;;;9.50;56.00
14269;BME280;7218;51.480;7.006;2023-04-25T10:52:42;100390.66;;;9.81;57.06
14269;BME280;7218;51.480;7.006;2023-04-25T10:55:09;100402.88;;;9.07;60.62
14269;BME280;7218;51.480;7.006;2023-04-25T10:57:37;100407.31;;;8.97;66.56
14269;BME280;7218;51.480;7.006;2023-04-25T11:00:09;100409.41;;;8.63;70.58
14269;BME280;7218;51.480;7.006;2023-04-25T11:02:38;100414.69;;;8.56;73.57
14269;BME280;7218;51.480;7.006;2023-04-25T11:05:08;100413.91;;;8.43;73.33
14269;BME280;7218;51.480;7.006;2023-04-25T11:07:39;100414.91;;;8.32;75.74
14269;BME280;7218;51.480;7.006;2023-04-25T11:10:10;100414.44;;;8.79;75.74
14269;BME280;7218;51.480;7.006;2023-04-25T11:12:37;100406.53;;;8.91;73.50
14269;BME280;7218;51.480;7.006;2023-04-25T11:15:05;100409.31;;;9.47;73.65
14269;BME280;7218;51.480;7.006;2023-04-25T11:17:33;100406.22;;;9.84;72.02
14269;BME280;7218;51.480;7.006;2023-04-25T11:20:00;100415.44;;;9.45;71.38
14269;BME280;7218;51.480;7.006;2023-04-25T11:22:29;100401.06;;;10.39;69.14
14269;BME280;7218;51.480;7.006;2023-04-25T11:24:55;100406.00;;;11.02;65.78
14269;BME280;7218;51.480;7.006;2023-04-25T11:27:22;100401.38;;;11.57;62.06
14269;BME280;7218;51.480;7.006;2023-04-25T11:29:49;100398.53;;;11.28;57.68
14269;BME280;7218;51.480;7.006;2023-04-25T11:32:17;100405.28;;;11.80;56.72
14269;BME280;7218;51.480;7.006;2023-04-25T11:34:44;100403.00;;;12.40;53.97
14269;BME280;7218;51.480;7.006;2023-04-25T11:37:11;100396.97;;;13.03;49.20
14269;BME280;7218;51.480;7.006;2023-04-25T11:39:42;100399.25;;;13.46;44.48
14269;BME280;7218;51.480;7.006;2023-04-25T11:42:10;100391.09;;;14.12;44.47
14269;BME280;7218;51.480;7.006;2023-04-25T11:44:37;100391.75;;;14.96;40.17
14269;BME280;7218;51.480;7.006;2023-04-25T11:47:04;100390.00;;;15.68;38.39
14269;BME280;7218;51.480;7.006;2023-04-25T11:49:31;100380.72;;;16.03;38.01
14269;BME280;7218;51.480;7.006;2023-04-25T11:51:58;100384.97;;;14.90;39.54
14269;BME280;7218;51.480;7.006;2023-04-25T11:54:24;100383.19;;;16.07;38.47
14269;BME280;7218;51.480;7.006;2023-04-25T11:56:52;100380.94;;;16.40;36.80
14269;BME280;7218;51.480;7.006;2023-04-25T11:59:23;100383.03;;;15.67;38.92
14269;BME280;7218;51.480;7.006;2023-04-25T12:01:50;100390.16;;;13.87;40.27
14269;BME280;7218;51.480;7.006;2023-04-25T12:04:17;100395.28;;;13.00;41.64
14269;BME280;7218;51.480;7.006;2023-04-25T12:06:46;100404.75;;;12.39;43.24
14269;BME280;7218;51.480;7.006;2023-04-25T12:09:13;100409.44;;;11.88;44.33
14269;BME280;7218;51.480;7.006;2023-04-25T12:11:41;100405.88;;;11.51;46.40
14269;BME280;7218;51.480;7.006;2023-04-25T12:14:10;100413.41;;;11.23;44.49
14269;BME280;7218;51.480;7.006;2023-04-25T12:16:41;100414.66;;;11.05;47.11
14269;BME280;7218;51.480;7.006;2023-04-25T12:19:08;100415.44;;;11.09;46.74
14269;BME280;7218;51.480;7.006;2023-04-25T12:21:34;100417.03;;;10.70;49.98
14269;BME280;7218;51.480;7.006;2023-04-25T12:24:11;100411.34;;;10.96;51.45
14269;BME280;7218;51.480;7.006;2023-04-25T12:26:49;100417.34;;;12.22;48.15
14269;BME280;7218;51.480;7.006;2023-04-25T12:29:20;100407.50;;;11.96;48.73
14269;BME280;7218;51.480;7.006;2023-04-25T12:31:47;100409.03;;;12.76;46.01
14269;BME280;7218;51.480;7.006;2023-04-25T12:34:13;100405.56;;;13.69;43.26
14269;BME280;7218;51.480;7.006;2023-04-25T12:36:40;100408.03;;;14.56;43.29
14269;BME280;7218;51.480;7.006;2023-04-25T12:39:07;100405.81;;;15.43;39.64
14269;BME280;7218;51.480;7.006;2023-04-25T12:41:33;100406.56;;;15.70;38.39
14269;BME280;7218;51.480;7.006;2023-04-25T12:44:00;100401.00;;;16.64;37.18
14269;BME280;7218;51.480;7.006;2023-04-25T12:46:28;100416.50;;;15.38;35.95
14269;BME280;7218;51.480;7.006;2023-04-25T12:48:54;100432.50;;;14.83;39.75
14269;BME280;7218;51.480;7.006;2023-04-25T12:51:22;100431.25;;;13.57;43.42
14269;BME280;7218;51.480;7.006;2023-04-25T12:53:50;100430.97;;;13.66;50.71
14269;BME280;7218;51.480;7.006;2023-04-25T12:56:17;100435.28;;;13.05;55.44
14269;BME280;7218;51.480;7.006;2023-04-25T12:58:44;100438.19;;;12.61;58.60
14269;BME280;7218;51.480;7.006;2023-04-25T13:01:10;100437.78;;;12.42;61.18
14269;BME280;7218;51.480;7.006;2023-04-25T13:03:40;100444.38;;;12.23;62.78
14269;BME280;7218;51.480;7.006;2023-04-25T13:06:07;100444.41;;;11.83;63.84